Kezdőlap
METAR-TAF:

METAR-TAF

Repülőterek :

London-Heathrow-i repülőtér

London-Heathrow, Anglia

földrajzi szélesség: 51-29N, földrajzi hosszúság: 000-27W, magasság: 24 m

Jelenlegi meteorológiai megfigyelések

A jelentés 18 perccel ezelõtt készült, 22:50 UTC
Nyugati szél 3 kt
Hőmérséklet 21°C
Páratartalom 46%
Légköri nyomás 1015 hPa
Látótávolság 10 km, vagy több

METAR: EGLL 152250Z AUTO 27003KT 9999 NCD 21/09 Q1015 NOSIG

Idő: 00:08 (23:08 UTC)

Előrejelzés

A jelentés 6 órával és 16 perccel ezelõtt készült, 16:52 UTC
Az előrejelzés 15-én 18 óra UTC és 16-én 24 óra UTC között érvényes
Nyugati szél 5 kt
Látótávolság 10 km, vagy több
felhőtlen 1500 m magasságban, és nincs gomolyfelhõ

TAF: EGLL 151652Z 1518/1624 28005KT CAVOK

Meteorológiai megfigyelések és előrejelzések több, mint 4000 repülőtéren (METAR és TAF jelentéseket).

A térképen piros és sárga pontok jelzik az elérhető meteorológiai állomásokat.

Mozgassa az egeret a pont fölött, hogy megjelenjen az állomás neve.

Azután kattintson az időjárási megfigyelések és előrejelzések megtekintéséhez.

A térkép megváltoztatása: kattintson a fekete keresztel jelölt zöld gombra ráközelítéshez, a vonallal jelölt zöld gombra távolításhoz, vagy a zöld nyilakra a szomszédos térképek eléréséhez.


METAR-TAF: